sensor_id;sensor_type;location;lat;lon;timestamp;temperature;humidity
17843;DHT22;69286;48.222;16.332;2023-09-18T00:01:19;20.60;98.90
17843;DHT22;69286;48.222;16.332;2023-09-18T00:03:46;20.50;99.20
17843;DHT22;69286;48.222;16.332;2023-09-18T00:06:15;20.50;99.10
17843;DHT22;69286;48.222;16.332;2023-09-18T00:08:42;20.40;99.40
17843;DHT22;69286;48.222;16.332;2023-09-18T00:11:09;20.40;99.40
17843;DHT22;69286;48.222;16.332;2023-09-18T00:13:38;20.30;99.80
17843;DHT22;69286;48.222;16.332;2023-09-18T00:16:05;20.30;99.90
17843;DHT22;69286;48.222;16.332;2023-09-18T00:18:32;20.30;99.70
17843;DHT22;69286;48.222;16.332;2023-09-18T00:20:58;20.30;99.70
17843;DHT22;69286;48.222;16.332;2023-09-18T00:23:27;20.20;99.90
17843;DHT22;69286;48.222;16.332;2023-09-18T00:25:54;20.10;99.90
17843;DHT22;69286;48.222;16.332;2023-09-18T00:28:21;20.10;99.90
17843;DHT22;69286;48.222;16.332;2023-09-18T00:30:49;20.10;99.90
17843;DHT22;69286;48.222;16.332;2023-09-18T00:33:17;20.00;99.90
17843;DHT22;69286;48.222;16.332;2023-09-18T00:35:48;20.10;99.90
17843;DHT22;69286;48.222;16.332;2023-09-18T00:38:15;20.00;99.90
17843;DHT22;69286;48.222;16.332;2023-09-18T00:40:43;20.00;99.90
17843;DHT22;69286;48.222;16.332;2023-09-18T00:43:10;20.00;99.90
17843;DHT22;69286;48.222;16.332;2023-09-18T00:45:40;19.90;99.90
17843;DHT22;69286;48.222;16.332;2023-09-18T00:48:08;19.80;99.90
17843;DHT22;69286;48.222;16.332;2023-09-18T00:50:36;19.80;99.90
17843;DHT22;69286;48.222;16.332;2023-09-18T00:53:04;19.80;99.90
17843;DHT22;69286;48.222;16.332;2023-09-18T00:55:34;19.90;99.90
17843;DHT22;69286;48.222;16.332;2023-09-18T00:58:05;19.90;99.90
17843;DHT22;69286;48.222;16.332;2023-09-18T01:00:32;19.90;99.90
17843;DHT22;69286;48.222;16.332;2023-09-18T01:02:59;19.70;99.90
17843;DHT22;69286;48.222;16.332;2023-09-18T01:05:27;19.70;99.90
17843;DHT22;69286;48.222;16.332;2023-09-18T01:07:54;19.70;99.90
17843;DHT22;69286;48.222;16.332;2023-09-18T01:10:23;19.70;99.90
17843;DHT22;69286;48.222;16.332;2023-09-18T01:12:57;19.60;99.90
17843;DHT22;69286;48.222;16.332;2023-09-18T01:15:35;19.50;99.90
17843;DHT22;69286;48.222;16.332;2023-09-18T01:18:03;19.60;99.90
17843;DHT22;69286;48.222;16.332;2023-09-18T01:20:31;19.60;99.90
17843;DHT22;69286;48.222;16.332;2023-09-18T01:22:59;19.60;99.90
17843;DHT22;69286;48.222;16.332;2023-09-18T01:25:26;19.60;99.90
17843;DHT22;69286;48.222;16.332;2023-09-18T01:27:53;19.60;99.90
17843;DHT22;69286;48.222;16.332;2023-09-18T01:30:20;19.50;99.90
17843;DHT22;69286;48.222;16.332;2023-09-18T01:32:50;19.50;99.90
17843;DHT22;69286;48.222;16.332;2023-09-18T01:35:19;19.50;99.90
17843;DHT22;69286;48.222;16.332;2023-09-18T01:37:49;19.60;99.90
17843;DHT22;69286;48.222;16.332;2023-09-18T01:40:18;19.50;99.90
17843;DHT22;69286;48.222;16.332;2023-09-18T01:42:46;19.50;99.90
17843;DHT22;69286;48.222;16.332;2023-09-18T01:45:13;19.50;99.90
17843;DHT22;69286;48.222;16.332;2023-09-18T01:47:40;19.50;99.90
17843;DHT22;69286;48.222;16.332;2023-09-18T01:50:08;19.50;99.90
17843;DHT22;69286;48.222;16.332;2023-09-18T01:52:35;19.40;99.90
17843;DHT22;69286;48.222;16.332;2023-09-18T01:55:02;19.40;99.90
17843;DHT22;69286;48.222;16.332;2023-09-18T01:57:33;19.40;99.90
17843;DHT22;69286;48.222;16.332;2023-09-18T02:00:00;19.40;99.90
17843;DHT22;69286;48.222;16.332;2023-09-18T02:02:27;19.40;99.90
17843;DHT22;69286;48.222;16.332;2023-09-18T02:04:55;19.40;99.90
17843;DHT22;69286;48.222;16.332;2023-09-18T02:07:22;19.40;99.90
17843;DHT22;69286;48.222;16.332;2023-09-18T02:09:49;19.40;99.90
17843;DHT22;69286;48.222;16.332;2023-09-18T02:12:16;19.40;99.90
17843;DHT22;69286;48.222;16.332;2023-09-18T02:14:45;19.30;99.90
17843;DHT22;69286;48.222;16.332;2023-09-18T02:17:12;19.30;99.90
17843;DHT22;69286;48.222;16.332;2023-09-18T02:19:39;19.30;99.90
17843;DHT22;69286;48.222;16.332;2023-09-18T02:22:06;19.30;99.90
17843;DHT22;69286;48.222;16.332;2023-09-18T02:24:34;19.30;99.90
17843;DHT22;69286;48.222;16.332;2023-09-18T02:27:03;19.30;99.90
17843;DHT22;69286;48.222;16.332;2023-09-18T02:29:30;19.30;99.90
17843;DHT22;69286;48.222;16.332;2023-09-18T02:31:59;19.40;99.90
17843;DHT22;69286;48.222;16.332;2023-09-18T02:34:26;19.30;99.90
17843;DHT22;69286;48.222;16.332;2023-09-18T02:36:53;19.40;99.90
17843;DHT22;69286;48.222;16.332;2023-09-18T02:39:20;19.40;99.90
17843;DHT22;69286;48.222;16.332;2023-09-18T02:41:47;19.30;99.90
17843;DHT22;69286;48.222;16.332;2023-09-18T02:44:14;19.40;99.90
17843;DHT22;69286;48.222;16.332;2023-09-18T02:46:42;19.30;99.90
17843;DHT22;69286;48.222;16.332;2023-09-18T02:49:10;19.40;99.90
17843;DHT22;69286;48.222;16.332;2023-09-18T02:51:37;19.40;99.90
17843;DHT22;69286;48.222;16.332;2023-09-18T02:54:05;19.30;99.90
17843;DHT22;69286;48.222;16.332;2023-09-18T02:56:32;19.30;99.90
17843;DHT22;69286;48.222;16.332;2023-09-18T02:58:59;19.20;99.90
17843;DHT22;69286;48.222;16.332;2023-09-18T03:01:26;19.20;99.90
17843;DHT22;69286;48.222;16.332;2023-09-18T03:03:53;19.20;99.90
17843;DHT22;69286;48.222;16.332;2023-09-18T03:06:21;19.20;99.90
17843;DHT22;69286;48.222;16.332;2023-09-18T03:08:48;19.20;99.90
17843;DHT22;69286;48.222;16.332;2023-09-18T03:11:15;19.20;99.90
17843;DHT22;69286;48.222;16.332;2023-09-18T03:13:46;19.20;99.90
17843;DHT22;69286;48.222;16.332;2023-09-18T03:16:13;19.20;99.90
17843;DHT22;69286;48.222;16.332;2023-09-18T03:18:41;19.10;99.90
17843;DHT22;69286;48.222;16.332;2023-09-18T03:21:08;19.10;99.90
17843;DHT22;69286;48.222;16.332;2023-09-18T03:23:36;19.10;99.90
17843;DHT22;69286;48.222;16.332;2023-09-18T03:26:03;19.00;99.90
17843;DHT22;69286;48.222;16.332;2023-09-18T03:28:30;19.00;99.90
17843;DHT22;69286;48.222;16.332;2023-09-18T03:30:58;19.00;99.90
17843;DHT22;69286;48.222;16.332;2023-09-18T03:33:25;19.00;99.90
17843;DHT22;69286;48.222;16.332;2023-09-18T03:35:53;19.00;99.90
17843;DHT22;69286;48.222;16.332;2023-09-18T03:38:23;19.00;99.90
17843;DHT22;69286;48.222;16.332;2023-09-18T03:40:52;19.00;99.90
17843;DHT22;69286;48.222;16.332;2023-09-18T03:43:19;18.90;99.90
17843;DHT22;69286;48.222;16.332;2023-09-18T03:45:46;18.90;99.90
17843;DHT22;69286;48.222;16.332;2023-09-18T03:48:13;18.90;99.90
17843;DHT22;69286;48.222;16.332;2023-09-18T03:50:40;18.80;99.90
17843;DHT22;69286;48.222;16.332;2023-09-18T03:53:08;18.80;99.90
17843;DHT22;69286;48.222;16.332;2023-09-18T03:55:35;18.80;99.90
17843;DHT22;69286;48.222;16.332;2023-09-18T03:58:03;18.80;99.90
17843;DHT22;69286;48.222;16.332;2023-09-18T04:00:31;18.90;99.90
17843;DHT22;69286;48.222;16.332;2023-09-18T04:02:58;18.80;99.90
17843;DHT22;69286;48.222;16.332;2023-09-18T04:05:25;18.80;99.90
17843;DHT22;69286;48.222;16.332;2023-09-18T04:07:52;18.90;99.90
17843;DHT22;69286;48.222;16.332;2023-09-18T04:10:19;18.90;99.90
17843;DHT22;69286;48.222;16.332;2023-09-18T04:12:49;18.90;99.90
17843;DHT22;69286;48.222;16.332;2023-09-18T04:15:18;18.80;99.90
17843;DHT22;69286;48.222;16.332;2023-09-18T04:17:46;18.80;99.90
17843;DHT22;69286;48.222;16.332;2023-09-18T04:20:14;18.70;99.90
17843;DHT22;69286;48.222;16.332;2023-09-18T04:22:43;18.80;99.90
17843;DHT22;69286;48.222;16.332;2023-09-18T04:25:11;18.80;99.90
17843;DHT22;69286;48.222;16.332;2023-09-18T04:27:39;18.70;99.90
17843;DHT22;69286;48.222;16.332;2023-09-18T04:30:07;18.70;99.90
17843;DHT22;69286;48.222;16.332;2023-09-18T04:32:36;18.70;99.90
17843;DHT22;69286;48.222;16.332;2023-09-18T04:35:03;18.80;99.90
17843;DHT22;69286;48.222;16.332;2023-09-18T04:37:35;18.70;99.90
17843;DHT22;69286;48.222;16.332;2023-09-18T04:40:02;18.70;99.90
17843;DHT22;69286;48.222;16.332;2023-09-18T04:42:30;18.70;99.90
17843;DHT22;69286;48.222;16.332;2023-09-18T04:44:57;18.70;99.90
17843;DHT22;69286;48.222;16.332;2023-09-18T04:47:24;18.70;99.90
17843;DHT22;69286;48.222;16.332;2023-09-18T04:49:52;18.80;99.90
17843;DHT22;69286;48.222;16.332;2023-09-18T04:52:20;18.70;99.90
17843;DHT22;69286;48.222;16.332;2023-09-18T04:54:47;18.80;99.90
17843;DHT22;69286;48.222;16.332;2023-09-18T04:57:14;18.80;99.90
17843;DHT22;69286;48.222;16.332;2023-09-18T04:59:41;18.70;99.90
17843;DHT22;69286;48.222;16.332;2023-09-18T05:02:08;18.70;99.90
17843;DHT22;69286;48.222;16.332;2023-09-18T05:04:35;18.90;99.90
17843;DHT22;69286;48.222;16.332;2023-09-18T05:07:04;19.00;99.90
17843;DHT22;69286;48.222;16.332;2023-09-18T05:09:31;19.10;99.90
17843;DHT22;69286;48.222;16.332;2023-09-18T05:11:58;19.20;99.90
17843;DHT22;69286;48.222;16.332;2023-09-18T05:14:25;19.40;99.90
17843;DHT22;69286;48.222;16.332;2023-09-18T05:16:52;19.50;99.90
17843;DHT22;69286;48.222;16.332;2023-09-18T05:19:19;19.60;99.90
17843;DHT22;69286;48.222;16.332;2023-09-18T05:21:47;19.80;99.90
17843;DHT22;69286;48.222;16.332;2023-09-18T05:24:15;20.00;99.90
17843;DHT22;69286;48.222;16.332;2023-09-18T05:26:42;20.10;99.90
17843;DHT22;69286;48.222;16.332;2023-09-18T05:29:09;20.30;99.90
17843;DHT22;69286;48.222;16.332;2023-09-18T05:31:36;20.50;99.90
17843;DHT22;69286;48.222;16.332;2023-09-18T05:34:03;20.70;99.90
17843;DHT22;69286;48.222;16.332;2023-09-18T05:36:30;20.90;99.90
17843;DHT22;69286;48.222;16.332;2023-09-18T05:38:58;21.20;99.90
17843;DHT22;69286;48.222;16.332;2023-09-18T05:41:27;21.30;99.90
17843;DHT22;69286;48.222;16.332;2023-09-18T05:43:55;21.40;99.90
17843;DHT22;69286;48.222;16.332;2023-09-18T05:46:22;21.50;99.90
17843;DHT22;69286;48.222;16.332;2023-09-18T05:48:49;21.80;99.90
17843;DHT22;69286;48.222;16.332;2023-09-18T05:51:16;22.10;99.90
17843;DHT22;69286;48.222;16.332;2023-09-18T05:53:43;22.20;99.80
17843;DHT22;69286;48.222;16.332;2023-09-18T05:56:10;22.30;99.90
17843;DHT22;69286;48.222;16.332;2023-09-18T05:58:38;22.30;99.50
17843;DHT22;69286;48.222;16.332;2023-09-18T06:01:06;22.40;99.50
17843;DHT22;69286;48.222;16.332;2023-09-18T06:03:34;22.60;99.10
17843;DHT22;69286;48.222;16.332;2023-09-18T06:06:01;22.70;98.60
17843;DHT22;69286;48.222;16.332;2023-09-18T06:08:29;22.90;98.20
17843;DHT22;69286;48.222;16.332;2023-09-18T06:10:57;23.00;98.00
17843;DHT22;69286;48.222;16.332;2023-09-18T06:13:25;23.40;97.10
17843;DHT22;69286;48.222;16.332;2023-09-18T06:15:54;23.60;96.60
17843;DHT22;69286;48.222;16.332;2023-09-18T06:18:22;23.60;96.30
17843;DHT22;69286;48.222;16.332;2023-09-18T06:20:49;23.60;96.20
17843;DHT22;69286;48.222;16.332;2023-09-18T06:23:16;23.90;96.20
17843;DHT22;69286;48.222;16.332;2023-09-18T06:25:43;23.80;95.80
17843;DHT22;69286;48.222;16.332;2023-09-18T06:28:10;23.80;95.90
17843;DHT22;69286;48.222;16.332;2023-09-18T06:30:38;23.50;96.20
17843;DHT22;69286;48.222;16.332;2023-09-18T06:33:06;23.60;96.50
17843;DHT22;69286;48.222;16.332;2023-09-18T06:35:33;23.90;95.90
17843;DHT22;69286;48.222;16.332;2023-09-18T06:38:00;24.20;95.40
17843;DHT22;69286;48.222;16.332;2023-09-18T06:40:28;24.60;94.80
17843;DHT22;69286;48.222;16.332;2023-09-18T06:42:58;24.90;94.00
17843;DHT22;69286;48.222;16.332;2023-09-18T06:45:26;24.50;94.40
17843;DHT22;69286;48.222;16.332;2023-09-18T06:47:53;24.30;94.60
17843;DHT22;69286;48.222;16.332;2023-09-18T06:50:22;24.30;94.50
17843;DHT22;69286;48.222;16.332;2023-09-18T06:52:49;24.50;94.50
17843;DHT22;69286;48.222;16.332;2023-09-18T06:55:16;24.60;93.90
17843;DHT22;69286;48.222;16.332;2023-09-18T06:57:43;24.60;94.00
17843;DHT22;69286;48.222;16.332;2023-09-18T07:00:11;24.60;93.70
17843;DHT22;69286;48.222;16.332;2023-09-18T07:02:40;24.50;94.00
17843;DHT22;69286;48.222;16.332;2023-09-18T07:05:07;24.40;94.20
17843;DHT22;69286;48.222;16.332;2023-09-18T07:07:35;24.50;94.00
17843;DHT22;69286;48.222;16.332;2023-09-18T07:10:03;24.80;93.70
17843;DHT22;69286;48.222;16.332;2023-09-18T07:12:30;24.90;93.20
17843;DHT22;69286;48.222;16.332;2023-09-18T07:14:58;25.00;93.20
17843;DHT22;69286;48.222;16.332;2023-09-18T07:17:25;25.20;93.20
17843;DHT22;69286;48.222;16.332;2023-09-18T07:19:52;25.50;92.50
17843;DHT22;69286;48.222;16.332;2023-09-18T07:22:19;25.80;92.00
17843;DHT22;69286;48.222;16.332;2023-09-18T07:24:47;25.80;92.00
17843;DHT22;69286;48.222;16.332;2023-09-18T07:27:14;26.20;91.20
17843;DHT22;69286;48.222;16.332;2023-09-18T07:29:41;26.40;90.90
17843;DHT22;69286;48.222;16.332;2023-09-18T07:32:08;27.20;90.50
17843;DHT22;69286;48.222;16.332;2023-09-18T07:34:35;27.90;87.60
17843;DHT22;69286;48.222;16.332;2023-09-18T07:37:03;27.60;87.10
17843;DHT22;69286;48.222;16.332;2023-09-18T07:39:30;27.20;87.60
17843;DHT22;69286;48.222;16.332;2023-09-18T07:41:59;27.20;87.60
17843;DHT22;69286;48.222;16.332;2023-09-18T07:44:26;27.00;87.90
17843;DHT22;69286;48.222;16.332;2023-09-18T07:46:53;28.60;86.20
17843;DHT22;69286;48.222;16.332;2023-09-18T07:49:20;30.80;81.40
17843;DHT22;69286;48.222;16.332;2023-09-18T07:51:47;30.90;77.60
17843;DHT22;69286;48.222;16.332;2023-09-18T07:54:14;30.60;77.10
17843;DHT22;69286;48.222;16.332;2023-09-18T07:56:41;31.20;75.60
17843;DHT22;69286;48.222;16.332;2023-09-18T07:59:10;30.10;75.40
17843;DHT22;69286;48.222;16.332;2023-09-18T08:01:37;28.70;80.30
17843;DHT22;69286;48.222;16.332;2023-09-18T08:04:04;29.30;78.50
17843;DHT22;69286;48.222;16.332;2023-09-18T08:06:31;29.10;77.90
17843;DHT22;69286;48.222;16.332;2023-09-18T08:08:59;28.90;78.80
17843;DHT22;69286;48.222;16.332;2023-09-18T08:11:27;29.30;77.60
17843;DHT22;69286;48.222;16.332;2023-09-18T08:13:53;29.20;77.40
17843;DHT22;69286;48.222;16.332;2023-09-18T08:16:22;28.40;80.10
17843;DHT22;69286;48.222;16.332;2023-09-18T08:18:49;28.00;80.90
17843;DHT22;69286;48.222;16.332;2023-09-18T08:21:16;27.60;82.40
17843;DHT22;69286;48.222;16.332;2023-09-18T08:23:43;27.60;82.60
17843;DHT22;69286;48.222;16.332;2023-09-18T08:26:10;27.90;81.90
17843;DHT22;69286;48.222;16.332;2023-09-18T08:28:37;28.20;80.70
17843;DHT22;69286;48.222;16.332;2023-09-18T08:31:09;28.20;80.70
17843;DHT22;69286;48.222;16.332;2023-09-18T08:33:37;28.20;80.70
17843;DHT22;69286;48.222;16.332;2023-09-18T08:36:04;28.40;80.40
17843;DHT22;69286;48.222;16.332;2023-09-18T08:38:31;28.10;80.50
17843;DHT22;69286;48.222;16.332;2023-09-18T08:40:59;27.70;81.70
17843;DHT22;69286;48.222;16.332;2023-09-18T08:43:26;27.60;82.30
17843;DHT22;69286;48.222;16.332;2023-09-18T08:45:56;27.90;81.70
17843;DHT22;69286;48.222;16.332;2023-09-18T08:48:28;28.00;81.30
17843;DHT22;69286;48.222;16.332;2023-09-18T08:51:02;28.10;81.40
17843;DHT22;69286;48.222;16.332;2023-09-18T08:53:31;28.20;81.10
17843;DHT22;69286;48.222;16.332;2023-09-18T08:55:59;28.10;80.70
17843;DHT22;69286;48.222;16.332;2023-09-18T08:58:28;28.30;80.70
17843;DHT22;69286;48.222;16.332;2023-09-18T09:00:56;28.40;80.20
17843;DHT22;69286;48.222;16.332;2023-09-18T09:03:23;27.80;80.90
17843;DHT22;69286;48.222;16.332;2023-09-18T09:05:50;27.90;81.00
17843;DHT22;69286;48.222;16.332;2023-09-18T09:08:19;28.20;79.80
17843;DHT22;69286;48.222;16.332;2023-09-18T09:10:46;28.30;79.40
17843;DHT22;69286;48.222;16.332;2023-09-18T09:13:14;28.20;79.10
17843;DHT22;69286;48.222;16.332;2023-09-18T09:15:44;28.20;79.00
17843;DHT22;69286;48.222;16.332;2023-09-18T09:18:13;28.20;78.60
17843;DHT22;69286;48.222;16.332;2023-09-18T09:20:41;28.30;78.90
17843;DHT22;69286;48.222;16.332;2023-09-18T09:23:09;28.20;79.50
17843;DHT22;69286;48.222;16.332;2023-09-18T09:25:38;28.40;78.40
17843;DHT22;69286;48.222;16.332;2023-09-18T09:28:06;28.50;78.30
17843;DHT22;69286;48.222;16.332;2023-09-18T09:30:36;28.70;77.90
17843;DHT22;69286;48.222;16.332;2023-09-18T09:33:04;29.10;76.60
17843;DHT22;69286;48.222;16.332;2023-09-18T09:35:33;29.10;76.30
17843;DHT22;69286;48.222;16.332;2023-09-18T09:38:01;28.90;76.20
17843;DHT22;69286;48.222;16.332;2023-09-18T09:40:29;28.80;77.00
17843;DHT22;69286;48.222;16.332;2023-09-18T09:42:58;28.80;76.70
17843;DHT22;69286;48.222;16.332;2023-09-18T09:45:29;29.30;75.10
17843;DHT22;69286;48.222;16.332;2023-09-18T09:47:57;29.00;75.20
17843;DHT22;69286;48.222;16.332;2023-09-18T09:50:24;28.90;75.30
17843;DHT22;69286;48.222;16.332;2023-09-18T09:52:53;28.80;75.70
17843;DHT22;69286;48.222;16.332;2023-09-18T09:55:23;28.70;76.50
17843;DHT22;69286;48.222;16.332;2023-09-18T09:57:53;28.50;77.20
17843;DHT22;69286;48.222;16.332;2023-09-18T10:00:25;28.60;76.50
17843;DHT22;69286;48.222;16.332;2023-09-18T10:03:00;28.50;77.00
17843;DHT22;69286;48.222;16.332;2023-09-18T10:05:30;28.00;77.90
17843;DHT22;69286;48.222;16.332;2023-09-18T10:07:59;27.80;78.90
17843;DHT22;69286;48.222;16.332;2023-09-18T10:10:31;27.80;79.30
17843;DHT22;69286;48.222;16.332;2023-09-18T10:13:03;28.10;78.60
17843;DHT22;69286;48.222;16.332;2023-09-18T10:15:35;28.50;77.30
17843;DHT22;69286;48.222;16.332;2023-09-18T10:18:07;28.90;75.70
17843;DHT22;69286;48.222;16.332;2023-09-18T10:20:40;28.70;75.90
17843;DHT22;69286;48.222;16.332;2023-09-18T10:23:17;28.50;77.10
17843;DHT22;69286;48.222;16.332;2023-09-18T10:25:52;28.30;77.30
17843;DHT22;69286;48.222;16.332;2023-09-18T10:28:23;28.20;77.90
17843;DHT22;69286;48.222;16.332;2023-09-18T10:30:56;28.10;78.50
17843;DHT22;69286;48.222;16.332;2023-09-18T10:33:25;28.00;78.00
17843;DHT22;69286;48.222;16.332;2023-09-18T10:35:53;27.80;79.00
17843;DHT22;69286;48.222;16.332;2023-09-18T10:38:23;27.70;79.50
17843;DHT22;69286;48.222;16.332;2023-09-18T10:40:56;27.30;80.20
17843;DHT22;69286;48.222;16.332;2023-09-18T10:43:24;27.20;80.70
17843;DHT22;69286;48.222;16.332;2023-09-18T10:45:52;27.10;81.40
17843;DHT22;69286;48.222;16.332;2023-09-18T10:48:20;27.20;81.30
17843;DHT22;69286;48.222;16.332;2023-09-18T10:50:48;27.30;80.50
17843;DHT22;69286;48.222;16.332;2023-09-18T10:53:15;27.30;80.20
17843;DHT22;69286;48.222;16.332;2023-09-18T10:55:44;27.20;80.60
17843;DHT22;69286;48.222;16.332;2023-09-18T10:58:11;27.40;80.50
17843;DHT22;69286;48.222;16.332;2023-09-18T11:00:41;27.50;80.30
17843;DHT22;69286;48.222;16.332;2023-09-18T11:03:15;27.50;79.40
17843;DHT22;69286;48.222;16.332;2023-09-18T11:05:44;27.60;79.30
17843;DHT22;69286;48.222;16.332;2023-09-18T11:08:25;27.50;79.00
17843;DHT22;69286;48.222;16.332;2023-09-18T11:10:57;27.50;78.90
17843;DHT22;69286;48.222;16.332;2023-09-18T11:13:31;27.40;79.30
17843;DHT22;69286;48.222;16.332;2023-09-18T11:16:17;27.40;79.60
17843;DHT22;69286;48.222;16.332;2023-09-18T11:18:48;27.40;80.00
17843;DHT22;69286;48.222;16.332;2023-09-18T11:21:19;27.30;79.00
17843;DHT22;69286;48.222;16.332;2023-09-18T11:23:58;27.20;79.60
17843;DHT22;69286;48.222;16.332;2023-09-18T11:26:28;27.20;79.00
17843;DHT22;69286;48.222;16.332;2023-09-18T11:28:58;27.00;79.50
17843;DHT22;69286;48.222;16.332;2023-09-18T11:31:41;27.00;80.00
17843;DHT22;69286;48.222;16.332;2023-09-18T11:34:15;27.10;79.90
17843;DHT22;69286;48.222;16.332;2023-09-18T11:36:46;27.20;79.50
17843;DHT22;69286;48.222;16.332;2023-09-18T11:39:13;27.20;79.50
17843;DHT22;69286;48.222;16.332;2023-09-18T11:41:40;27.20;79.00
17843;DHT22;69286;48.222;16.332;2023-09-18T11:44:32;27.20;79.40
17843;DHT22;69286;48.222;16.332;2023-09-18T11:47:08;27.30;79.10
17843;DHT22;69286;48.222;16.332;2023-09-18T11:49:40;27.20;78.90
17843;DHT22;69286;48.222;16.332;2023-09-18T11:52:09;27.10;79.80
17843;DHT22;69286;48.222;16.332;2023-09-18T11:54:39;27.20;79.60
17843;DHT22;69286;48.222;16.332;2023-09-18T11:57:07;27.20;79.50
17843;DHT22;69286;48.222;16.332;2023-09-18T11:59:38;27.20;79.10
17843;DHT22;69286;48.222;16.332;2023-09-18T12:02:06;27.20;79.20
17843;DHT22;69286;48.222;16.332;2023-09-18T12:04:34;27.10;79.30
17843;DHT22;69286;48.222;16.332;2023-09-18T12:07:04;27.10;79.60
17843;DHT22;69286;48.222;16.332;2023-09-18T12:09:31;27.20;79.40
17843;DHT22;69286;48.222;16.332;2023-09-18T12:11:59;27.30;79.40
17843;DHT22;69286;48.222;16.332;2023-09-18T12:14:31;27.20;80.00
17843;DHT22;69286;48.222;16.332;2023-09-18T12:16:59;27.20;79.80
17843;DHT22;69286;48.222;16.332;2023-09-18T12:19:27;27.20;79.20
17843;DHT22;69286;48.222;16.332;2023-09-18T12:21:54;27.30;78.90
17843;DHT22;69286;48.222;16.332;2023-09-18T12:24:23;27.30;78.60
17843;DHT22;69286;48.222;16.332;2023-09-18T12:26:51;27.20;78.70
17843;DHT22;69286;48.222;16.332;2023-09-18T12:29:18;27.30;79.20
17843;DHT22;69286;48.222;16.332;2023-09-18T12:31:47;27.40;78.20
17843;DHT22;69286;48.222;16.332;2023-09-18T12:34:17;27.40;78.50
17843;DHT22;69286;48.222;16.332;2023-09-18T12:36:44;27.40;78.90
17843;DHT22;69286;48.222;16.332;2023-09-18T12:39:12;27.50;78.40
17843;DHT22;69286;48.222;16.332;2023-09-18T12:41:43;27.40;77.80
17843;DHT22;69286;48.222;16.332;2023-09-18T12:44:11;27.40;77.70
17843;DHT22;69286;48.222;16.332;2023-09-18T12:46:40;27.40;78.30
17843;DHT22;69286;48.222;16.332;2023-09-18T12:49:20;27.50;78.50
17843;DHT22;69286;48.222;16.332;2023-09-18T12:51:58;27.50;78.70
17843;DHT22;69286;48.222;16.332;2023-09-18T12:54:38;27.60;78.70
17843;DHT22;69286;48.222;16.332;2023-09-18T12:57:08;27.60;78.70
17843;DHT22;69286;48.222;16.332;2023-09-18T12:59:37;27.50;78.70
17843;DHT22;69286;48.222;16.332;2023-09-18T13:02:05;27.50;79.10
17843;DHT22;69286;48.222;16.332;2023-09-18T13:04:32;27.50;79.20
17843;DHT22;69286;48.222;16.332;2023-09-18T13:07:10;27.50;79.20
17843;DHT22;69286;48.222;16.332;2023-09-18T13:09:38;27.50;79.10
17843;DHT22;69286;48.222;16.332;2023-09-18T13:12:09;27.50;78.10
17843;DHT22;69286;48.222;16.332;2023-09-18T13:14:57;27.50;79.10
17843;DHT22;69286;48.222;16.332;2023-09-18T13:17:26;27.50;79.50
17843;DHT22;69286;48.222;16.332;2023-09-18T13:19:53;27.60;79.60
17843;DHT22;69286;48.222;16.332;2023-09-18T13:22:24;27.40;80.20
17843;DHT22;69286;48.222;16.332;2023-09-18T13:24:55;27.40;80.30
17843;DHT22;69286;48.222;16.332;2023-09-18T13:27:24;27.30;80.40
17843;DHT22;69286;48.222;16.332;2023-09-18T13:29:52;27.20;80.20
17843;DHT22;69286;48.222;16.332;2023-09-18T13:32:20;27.20;80.60
17843;DHT22;69286;48.222;16.332;2023-09-18T13:34:48;27.00;81.20
17843;DHT22;69286;48.222;16.332;2023-09-18T13:37:15;26.90;81.60
17843;DHT22;69286;48.222;16.332;2023-09-18T13:39:43;26.90;82.00
17843;DHT22;69286;48.222;16.332;2023-09-18T13:42:11;27.00;82.00
17843;DHT22;69286;48.222;16.332;2023-09-18T13:44:39;26.90;82.00
17843;DHT22;69286;48.222;16.332;2023-09-18T13:47:06;26.80;82.00
17843;DHT22;69286;48.222;16.332;2023-09-18T13:49:33;26.80;82.20
17843;DHT22;69286;48.222;16.332;2023-09-18T13:52:00;26.70;82.00
17843;DHT22;69286;48.222;16.332;2023-09-18T13:54:29;26.50;82.30
17843;DHT22;69286;48.222;16.332;2023-09-18T13:56:56;26.50;82.80
17843;DHT22;69286;48.222;16.332;2023-09-18T13:59:23;26.40;82.80
17843;DHT22;69286;48.222;16.332;2023-09-18T14:01:52;26.30;82.90
17843;DHT22;69286;48.222;16.332;2023-09-18T14:04:20;26.30;83.20
17843;DHT22;69286;48.222;16.332;2023-09-18T14:06:47;26.40;83.10
17843;DHT22;69286;48.222;16.332;2023-09-18T14:09:14;26.30;83.00
17843;DHT22;69286;48.222;16.332;2023-09-18T14:11:42;26.20;83.20
17843;DHT22;69286;48.222;16.332;2023-09-18T14:14:10;26.20;83.10
17843;DHT22;69286;48.222;16.332;2023-09-18T14:16:37;26.30;82.80
17843;DHT22;69286;48.222;16.332;2023-09-18T14:19:05;26.30;82.80
17843;DHT22;69286;48.222;16.332;2023-09-18T14:21:36;26.30;82.60
17843;DHT22;69286;48.222;16.332;2023-09-18T14:24:05;26.20;82.90
17843;DHT22;69286;48.222;16.332;2023-09-18T14:26:33;26.10;83.90
17843;DHT22;69286;48.222;16.332;2023-09-18T14:29:06;26.10;84.00
17843;DHT22;69286;48.222;16.332;2023-09-18T14:31:33;25.90;84.10
17843;DHT22;69286;48.222;16.332;2023-09-18T14:34:00;26.00;84.40
17843;DHT22;69286;48.222;16.332;2023-09-18T14:36:29;26.00;84.30
17843;DHT22;69286;48.222;16.332;2023-09-18T14:38:59;25.90;84.70
17843;DHT22;69286;48.222;16.332;2023-09-18T14:41:27;26.00;84.90
17843;DHT22;69286;48.222;16.332;2023-09-18T14:43:55;26.00;85.00
17843;DHT22;69286;48.222;16.332;2023-09-18T14:46:23;26.10;84.90
17843;DHT22;69286;48.222;16.332;2023-09-18T14:48:51;26.10;84.70
17843;DHT22;69286;48.222;16.332;2023-09-18T14:51:20;26.20;84.60
17843;DHT22;69286;48.222;16.332;2023-09-18T14:53:49;26.10;84.20
17843;DHT22;69286;48.222;16.332;2023-09-18T14:56:18;26.10;84.40
17843;DHT22;69286;48.222;16.332;2023-09-18T14:58:46;26.00;84.60
17843;DHT22;69286;48.222;16.332;2023-09-18T15:01:14;26.00;84.60
17843;DHT22;69286;48.222;16.332;2023-09-18T15:03:43;26.00;84.70
17843;DHT22;69286;48.222;16.332;2023-09-18T15:06:12;26.00;84.60
17843;DHT22;69286;48.222;16.332;2023-09-18T15:08:40;26.00;84.80
17843;DHT22;69286;48.222;16.332;2023-09-18T15:11:10;26.00;85.00
17843;DHT22;69286;48.222;16.332;2023-09-18T15:13:39;26.10;85.10
17843;DHT22;69286;48.222;16.332;2023-09-18T15:16:07;26.20;84.80
17843;DHT22;69286;48.222;16.332;2023-09-18T15:18:36;26.10;84.80
17843;DHT22;69286;48.222;16.332;2023-09-18T15:21:05;26.10;84.80
17843;DHT22;69286;48.222;16.332;2023-09-18T15:23:34;26.10;84.90